Terminal Aerodrome Forecast
Issued by NWS

Home | Current Version | Previous Version | Text Only | Print | Product List | Glossary On
Versions: 1 2 3 4 5 6 7 8 9 10 11 12 13 14 15
000
FTUS43 KAPX 010500
TAFMBL
TAF
KMBL 010529Z 0106/0206 14005KT P6SM SCT120 BKN250
     FM011400 18010G22KT P6SM BKN130
     FM011700 21010G23KT 6SM TSRA BKN050CB
     FM012000 22011G19KT P6SM VCSH OVC080
     FM020200 23006KT P6SM BKN050
      AMD LTD TO CLD VIS AND WIND=

USA.gov is the U.S. government's official web portal to all federal, state and local government web resources and services.